Time;durP1;ratioP1;P1;durP2;ratioP2;P2;SDS_P1;SDS_P2;PMS_P1;PMS_P2;Temp;Humidity;BMP_temperature;BMP_pressure;BME280_temperature;BME280_humidity;BME280_pressure;Samples;Min_cycle;Max_cycle;Signal;HPM_P1;HPM_P2
2022/01/28 00:01:33;;;;;;;292.95;149.77;;;4.90;99.90;;;;;;4889981;29;20119;-84
2022/01/28 00:04:11;;;;;;;303.98;152.55;;;4.90;99.90;;;;;;4895879;29;20056;-84
2022/01/28 00:06:36;;;;;;;297.20;149.82;;;5.00;99.90;;;;;;4901833;29;20048;-87
2022/01/28 00:09:02;;;;;;;296.73;150.80;;;4.80;99.90;;;;;;4900850;29;20051;-86
2022/01/28 00:11:28;;;;;;;296.60;150.27;;;4.70;99.90;;;;;;4879851;29;20029;-86
2022/01/28 00:14:03;;;;;;;294.65;149.60;;;4.60;99.90;;;;;;4892936;29;20076;-85
2022/01/28 00:17:35;;;;;;;288.42;147.65;;;4.40;99.90;;;;;;4883807;29;20052;-85
2022/01/28 00:38:30;;;;;;;288.38;147.15;;;4.00;99.90;;;;;;4900049;29;20044;-90
2022/01/28 00:40:56;;;;;;;292.08;149.13;;;4.10;99.90;;;;;;4880181;29;20052;-88
2022/01/28 00:43:22;;;;;;;291.73;148.60;;;4.10;99.90;;;;;;4895279;29;20054;-87
2022/01/28 00:45:47;;;;;;;294.27;149.63;;;4.10;99.90;;;;;;4883191;29;20099;-87
2022/01/28 00:48:13;;;;;;;285.98;146.63;;;4.20;99.90;;;;;;4906273;29;20052;-88
2022/01/28 00:50:41;;;;;;;280.88;144.35;;;4.30;99.90;;;;;;4904874;29;20111;-88
2022/01/28 00:53:07;;;;;;;286.65;145.57;;;4.40;99.90;;;;;;4909582;29;20056;-87
2022/01/28 00:55:33;;;;;;;298.40;150.63;;;4.40;99.90;;;;;;4891443;29;20048;-85
2022/01/28 00:57:58;;;;;;;301.65;151.25;;;4.50;99.90;;;;;;4880902;29;20064;-86
2022/01/28 01:00:24;;;;;;;297.80;149.48;;;4.40;99.90;;;;;;4898758;29;20075;-82
2022/01/28 01:02:50;;;;;;;299.70;151.30;;;4.50;99.90;;;;;;4879906;29;20655;-85
2022/01/28 01:05:15;;;;;;;297.48;150.05;;;4.40;99.90;;;;;;4877369;29;20064;-87
2022/01/28 01:07:42;;;;;;;298.23;150.07;;;4.40;99.90;;;;;;4895718;29;20349;-85
2022/01/28 01:10:08;;;;;;;299.08;150.68;;;4.40;99.90;;;;;;4891480;29;20432;-84
2022/01/28 01:12:40;;;;;;;294.50;148.73;;;4.30;99.90;;;;;;4892611;29;20079;-86
2022/01/28 01:15:06;;;;;;;302.95;151.80;;;4.30;99.90;;;;;;4899766;29;20103;-87
2022/01/28 01:17:48;;;;;;;298.13;150.52;;;4.20;99.90;;;;;;4896693;29;20083;-86
2022/01/28 01:20:34;;;;;;;297.88;150.55;;;4.20;99.90;;;;;;4892577;29;20609;-91
2022/01/28 01:23:09;;;;;;;289.58;147.38;;;4.20;99.90;;;;;;4883143;29;20044;-88
2022/01/28 01:25:59;;;;;;;290.10;149.02;;;4.10;99.90;;;;;;4882052;29;20056;-87
2022/01/28 01:28:30;;;;;;;291.23;148.00;;;4.10;99.90;;;;;;4885498;29;20052;-86
2022/01/28 01:30:58;;;;;;;288.27;147.85;;;4.10;99.90;;;;;;4891859;29;20055;-85
2022/01/28 01:33:24;;;;;;;289.60;148.52;;;4.10;99.90;;;;;;4897018;29;20044;-85
2022/01/28 01:35:50;;;;;;;292.40;148.85;;;5.00;99.90;;;;;;4897287;29;20131;-87
2022/01/28 01:38:15;;;;;;;290.65;148.18;;;4.10;99.90;;;;;;4889128;29;20196;-86
2022/01/28 01:40:54;;;;;;;292.52;149.07;;;4.20;99.90;;;;;;4898783;29;20052;-87
2022/01/28 01:53:53;;;;;;;290.88;148.52;;;4.20;99.90;;;;;;4880276;29;20056;-84
2022/01/28 01:56:20;;;;;;;289.42;148.48;;;4.30;99.90;;;;;;4891531;29;20494;-86
2022/01/28 01:58:46;;;;;;;284.80;146.43;;;4.30;99.90;;;;;;4889715;29;20048;-85
2022/01/28 02:01:12;;;;;;;285.85;146.38;;;4.30;99.90;;;;;;4881902;29;20045;-84
2022/01/28 02:03:38;;;;;;;281.13;143.93;;;4.40;99.90;;;;;;4897748;29;20096;-86
2022/01/28 02:06:04;;;;;;;289.38;148.30;;;4.40;99.90;;;;;;4886552;29;20111;-88
2022/01/28 02:08:34;;;;;;;287.98;147.40;;;4.40;99.90;;;;;;4884718;29;20097;-88
2022/01/28 02:11:01;;;;;;;279.25;144.73;;;4.50;99.90;;;;;;4886740;29;20045;-87
2022/01/28 02:13:28;;;;;;;289.27;148.38;;;4.50;99.90;;;;;;4883272;29;20051;-87
2022/01/28 02:15:57;;;;;;;285.63;147.80;;;4.60;99.90;;;;;;4883194;29;20127;-86
2022/01/28 02:18:24;;;;;;;282.65;146.25;;;4.60;99.90;;;;;;4888531;29;20087;-85
2022/01/28 02:20:52;;;;;;;286.65;147.48;;;4.70;99.90;;;;;;4906868;29;20120;-84
2022/01/28 02:23:21;;;;;;;293.65;149.52;;;4.70;99.90;;;;;;4888754;29;20484;-86
2022/01/28 02:25:47;;;;;;;289.15;147.85;;;4.70;99.90;;;;;;4879010;29;20048;-89
2022/01/28 02:28:16;;;;;;;288.67;146.73;;;4.80;99.90;;;;;;4904042;29;20463;-86
2022/01/28 02:30:42;;;;;;;287.73;147.65;;;4.80;99.90;;;;;;4878329;29;20055;-87
2022/01/28 02:33:19;;;;;;;292.27;148.38;;;4.80;99.90;;;;;;4880050;29;20100;-84
2022/01/28 02:35:46;;;;;;;291.73;148.05;;;4.80;99.90;;;;;;4889881;29;20048;-85
2022/01/28 02:38:14;;;;;;;290.30;147.55;;;4.80;99.90;;;;;;4880899;29;20037;-88
2022/01/28 02:40:44;;;;;;;297.52;150.57;;;4.80;99.90;;;;;;4908918;29;20052;-86
2022/01/28 02:43:36;;;;;;;301.50;152.13;;;4.80;99.90;;;;;;4907210;29;20063;-87
2022/01/28 02:46:09;;;;;;;295.63;150.30;;;4.80;99.90;;;;;;4896900;29;20127;-86
2022/01/28 02:48:38;;;;;;;295.52;149.55;;;4.80;99.90;;;;;;4888954;29;20095;-87
2022/01/28 02:51:11;;;;;;;298.27;151.27;;;4.80;99.90;;;;;;4881720;29;20068;-88
2022/01/28 02:53:56;;;;;;;295.40;149.40;;;4.80;99.90;;;;;;4879562;29;20052;-87
2022/01/28 02:56:40;;;;;;;290.92;148.30;;;4.80;99.90;;;;;;4881414;29;20152;-88
2022/01/28 02:59:07;;;;;;;296.13;149.13;;;4.80;99.90;;;;;;4886644;29;20088;-87
2022/01/28 03:01:33;;;;;;;300.52;151.63;;;4.80;99.90;;;;;;4890417;29;20044;-87
2022/01/28 03:04:01;;;;;;;297.33;150.07;;;4.80;99.90;;;;;;4879360;29;20136;-87
2022/01/28 03:06:27;;;;;;;296.35;149.95;;;4.90;99.90;;;;;;4878564;29;20048;-87
2022/01/28 03:09:07;;;;;;;301.13;151.60;;;4.90;99.90;;;;;;4886269;29;20127;-86
2022/01/28 03:19:26;;;;;;;298.13;149.95;;;4.90;99.90;;;;;;4880622;29;20398;-85
2022/01/28 03:22:04;;;;;;;299.48;151.13;;;4.90;99.90;;;;;;4883988;29;20055;-85
2022/01/28 03:24:29;;;;;;;293.55;148.52;;;4.90;99.90;;;;;;4880879;29;20044;-85
2022/01/28 03:27:02;;;;;;;295.58;148.88;;;4.90;99.90;;;;;;4881388;29;20060;-88
2022/01/28 03:29:27;;;;;;;297.77;150.65;;;4.90;99.90;;;;;;4884946;29;20066;-86
2022/01/28 03:31:53;;;;;;;297.52;150.15;;;4.90;99.90;;;;;;4879244;29;20045;-85
2022/01/28 03:34:18;;;;;;;297.50;150.77;;;4.90;99.90;;;;;;4885173;29;20091;-84
2022/01/28 03:36:44;;;;;;;296.77;148.98;;;4.90;99.90;;;;;;4897639;29;20048;-86
2022/01/28 03:39:11;;;;;;;296.92;150.00;;;4.90;99.90;;;;;;4893788;29;20056;-86
2022/01/28 03:41:38;;;;;;;294.48;148.38;;;4.90;99.90;;;;;;4890745;29;20124;-88
2022/01/28 03:44:04;;;;;;;293.23;148.90;;;4.90;99.90;;;;;;4879845;29;20056;-85
2022/01/28 03:46:30;;;;;;;298.58;150.60;;;4.90;99.90;;;;;;4895821;29;20569;-83
2022/01/28 03:48:56;;;;;;;300.80;151.55;;;4.90;99.90;;;;;;4878640;29;20053;-84
2022/01/28 03:51:22;;;;;;;296.85;150.45;;;4.90;99.90;;;;;;4878755;29;20048;-87
2022/01/28 03:53:49;;;;;;;298.73;150.45;;;5.00;99.90;;;;;;4876977;29;20083;-90
2022/01/28 03:56:15;;;;;;;292.48;148.05;;;4.90;99.90;;;;;;4890330;29;20159;-84
2022/01/28 03:58:40;;;;;;;300.80;151.98;;;4.90;99.90;;;;;;4881427;29;20077;-84
2022/01/28 04:01:13;;;;;;;296.17;149.68;;;4.90;99.90;;;;;;4879075;29;20052;-83
2022/01/28 04:03:49;;;;;;;300.33;151.50;;;5.00;99.90;;;;;;4879374;29;20428;-87
2022/01/28 04:11:45;;;;;;;296.40;149.15;;;5.00;99.90;;;;;;4878297;29;20572;-85
2022/01/28 04:14:41;;;;;;;298.15;151.00;;;5.00;99.90;;;;;;4906092;29;20393;-86
2022/01/28 04:17:30;;;;;;;293.90;148.55;;;5.00;99.90;;;;;;4895858;29;20116;-84
2022/01/28 04:19:50;;;;;;;302.15;152.23;;;5.00;99.90;;;;;;4892400;29;20060;-89
2022/01/28 04:22:16;;;;;;;302.52;152.02;;;5.00;99.90;;;;;;4886631;29;20052;-84
2022/01/28 04:24:41;;;;;;;295.67;149.68;;;5.00;99.90;;;;;;4876875;29;20068;-84
2022/01/28 04:27:07;;;;;;;298.83;151.07;;;5.00;99.90;;;;;;4898828;29;20071;-85
2022/01/28 04:29:33;;;;;;;302.70;152.70;;;5.00;99.90;;;;;;4886745;29;20131;-84
2022/01/28 04:31:59;;;;;;;294.80;149.45;;;5.10;99.90;;;;;;4884141;29;20170;-85
2022/01/28 04:34:24;;;;;;;302.90;153.00;;;5.00;99.90;;;;;;4888326;29;20460;-84
2022/01/28 04:39:34;;;;;;;297.88;151.20;;;5.00;99.90;;;;;;4897386;29;20167;-86
2022/01/28 04:42:54;;;;;;;301.00;152.07;;;5.10;99.90;;;;;;4877369;29;20056;-86
2022/01/28 04:55:00;;;;;;;291.98;148.65;;;5.10;99.90;;;;;;4882740;29;20107;-83
2022/01/28 05:03:04;;;;;;;299.67;151.88;;;5.10;99.90;;;;;;4897974;29;20052;-83
2022/01/28 05:26:38;;;;;;;294.08;150.75;;;4.70;99.90;;;;;;4897008;29;20139;-85
2022/01/28 05:29:04;;;;;;;292.67;150.45;;;4.70;99.90;;;;;;4893308;29;20279;-88
2022/01/28 05:31:29;;;;;;;290.30;149.63;;;4.70;99.90;;;;;;4882720;29;20472;-86
2022/01/28 05:33:55;;;;;;;283.33;146.48;;;4.70;99.90;;;;;;4882539;29;20143;-90
2022/01/28 05:36:22;;;;;;;288.10;148.60;;;4.70;99.90;;;;;;4881906;29;20044;-85
2022/01/28 05:38:48;;;;;;;283.42;146.77;;;4.70;99.90;;;;;;4887713;29;20492;-84
2022/01/28 05:41:14;;;;;;;286.95;148.88;;;4.70;99.90;;;;;;4890112;29;20044;-84
2022/01/28 05:43:39;;;;;;;289.00;149.23;;;4.70;99.90;;;;;;4890799;29;20459;-86
2022/01/28 05:46:05;;;;;;;286.50;148.68;;;4.70;99.90;;;;;;4890160;29;20064;-86
2022/01/28 05:48:31;;;;;;;287.73;149.38;;;4.80;99.90;;;;;;4882448;29;20385;-84
2022/01/28 05:50:57;;;;;;;283.60;147.57;;;4.90;99.90;;;;;;4892936;29;20056;-86
2022/01/28 05:53:22;;;;;;;284.77;148.52;;;4.80;99.90;;;;;;4891457;29;20051;-85
2022/01/28 05:55:48;;;;;;;284.83;148.50;;;4.80;99.90;;;;;;4885156;29;20048;-86
2022/01/28 05:58:13;;;;;;;281.75;147.05;;;4.80;99.90;;;;;;4883182;29;20040;-86
2022/01/28 06:00:39;;;;;;;283.10;147.80;;;4.80;99.90;;;;;;4882985;29;20500;-84
2022/01/28 06:03:05;;;;;;;285.90;149.02;;;4.80;99.90;;;;;;4904180;29;20469;-85
2022/01/28 06:05:30;;;;;;;286.67;149.32;;;5.50;99.90;;;;;;4895950;29;20147;-87
2022/01/28 06:08:00;;;;;;;283.05;147.18;;;4.90;99.90;;;;;;4898141;29;21638;-84
2022/01/28 06:10:27;;;;;;;283.20;147.48;;;4.90;99.90;;;;;;4883182;29;20044;-89
2022/01/28 06:12:52;;;;;;;284.88;148.52;;;4.90;99.90;;;;;;4897859;29;20044;-89
2022/01/28 06:15:18;;;;;;;284.25;148.57;;;4.90;99.90;;;;;;4901058;29;20052;-85
2022/01/28 06:17:44;;;;;;;280.30;147.60;;;5.00;99.90;;;;;;4909567;29;20046;-91
2022/01/28 06:20:11;;;;;;;286.98;149.73;;;5.00;99.90;;;;;;4902416;29;20140;-91
2022/01/28 06:22:42;;;;;;;286.42;148.95;;;5.00;99.90;;;;;;4916265;29;20055;-90
2022/01/28 06:25:08;;;;;;;282.97;147.30;;;5.00;99.90;;;;;;4884963;29;20044;-91
2022/01/28 06:27:35;;;;;;;279.73;145.85;;;4.90;99.90;;;;;;4884739;29;20068;-87
2022/01/28 06:30:04;;;;;;;280.42;146.55;;;4.90;99.90;;;;;;4886381;29;20457;-92
2022/01/28 06:32:31;;;;;;;275.98;144.63;;;4.90;99.90;;;;;;4898177;29;20135;-90
2022/01/28 06:34:56;;;;;;;285.20;149.10;;;4.90;99.90;;;;;;4888755;29;20446;-87
2022/01/28 06:37:22;;;;;;;283.50;148.30;;;4.90;99.90;;;;;;4880645;29;20137;-90
2022/01/28 06:39:49;;;;;;;281.90;147.18;;;4.80;99.90;;;;;;4885366;29;20045;-91
2022/01/28 06:42:14;;;;;;;281.42;146.98;;;4.80;99.90;;;;;;4909685;29;20372;-86
2022/01/28 06:44:40;;;;;;;285.85;148.85;;;4.80;99.90;;;;;;4890452;29;20139;-89
2022/01/28 06:47:10;;;;;;;277.92;145.60;;;4.80;99.90;;;;;;4884192;29;20045;-90
2022/01/28 06:49:37;;;;;;;285.50;149.10;;;4.80;99.90;;;;;;4866949;29;20064;-90
2022/01/28 06:52:03;;;;;;;286.48;150.07;;;4.70;99.90;;;;;;4890546;29;20051;-86
2022/01/28 06:54:29;;;;;;;280.38;146.55;;;4.70;99.90;;;;;;4886360;29;20076;-85
2022/01/28 06:56:54;;;;;;;285.08;148.90;;;4.70;99.90;;;;;;4886497;29;20135;-85
2022/01/28 06:59:20;;;;;;;284.85;148.50;;;4.60;99.90;;;;;;4884831;29;20048;-91
2022/01/28 07:01:45;;;;;;;282.10;147.38;;;4.60;99.90;;;;;;4908272;29;20051;-86
2022/01/28 07:04:11;;;;;;;284.33;148.73;;;4.60;99.90;;;;;;4891403;29;20145;-86
2022/01/28 07:06:36;;;;;;;282.85;147.82;;;4.50;99.90;;;;;;4888830;29;20051;-88
2022/01/28 07:09:02;;;;;;;279.98;147.23;;;4.50;99.90;;;;;;4886191;29;20127;-86
2022/01/28 07:11:28;;;;;;;281.67;147.75;;;4.50;99.90;;;;;;4912559;29;20229;-93
2022/01/28 07:13:53;;;;;;;278.17;146.25;;;4.50;99.90;;;;;;4893062;29;20044;-91
2022/01/28 07:16:19;;;;;;;282.20;148.25;;;4.50;99.90;;;;;;4902933;29;20131;-84
2022/01/28 07:18:44;;;;;;;280.08;146.77;;;4.50;99.90;;;;;;4886253;29;20460;-93
2022/01/28 07:21:10;;;;;;;279.85;146.68;;;4.50;99.90;;;;;;4889442;29;20051;-93
2022/01/28 07:23:35;;;;;;;279.25;146.82;;;4.50;99.90;;;;;;4902149;29;20040;-91
2022/01/28 07:26:01;;;;;;;277.85;146.20;;;4.50;99.90;;;;;;4897848;29;20048;-94
2022/01/28 07:28:27;;;;;;;279.88;147.02;;;4.50;99.90;;;;;;4902208;29;20040;-92
2022/01/28 07:30:53;;;;;;;279.92;146.75;;;4.50;99.90;;;;;;4887645;29;20127;-94
2022/01/28 07:33:18;;;;;;;283.13;148.23;;;4.50;99.90;;;;;;4890310;29;20040;-91
2022/01/28 07:35:45;;;;;;;281.20;146.93;;;4.50;99.90;;;;;;4901697;29;20133;-94
2022/01/28 07:38:10;;;;;;;276.88;146.10;;;4.50;99.90;;;;;;4883449;29;20060;-91
2022/01/28 07:40:36;;;;;;;280.38;147.00;;;4.50;99.90;;;;;;4902475;29;20047;-96
2022/01/28 07:43:02;;;;;;;281.35;147.88;;;4.50;99.90;;;;;;4897917;29;20089;-86
2022/01/28 07:45:28;;;;;;;280.60;147.77;;;4.50;99.90;;;;;;4890586;29;20059;-90
2022/01/28 07:47:54;;;;;;;283.17;148.88;;;4.50;99.90;;;;;;4892303;29;20381;-91
2022/01/28 07:50:20;;;;;;;283.63;148.57;;;4.50;99.90;;;;;;4895248;29;20064;-87
2022/01/28 07:52:46;;;;;;;282.80;148.43;;;4.60;99.90;;;;;;4884091;29;20150;-86
2022/01/28 07:55:13;;;;;;;282.45;148.07;;;4.60;99.90;;;;;;4887701;29;20567;-89
2022/01/28 07:57:41;;;;;;;283.02;148.43;;;4.70;99.90;;;;;;4890124;29;20060;-90
2022/01/28 08:00:08;;;;;;;283.13;148.43;;;4.70;99.90;;;;;;4883945;29;20061;-91
2022/01/28 08:02:35;;;;;;;283.50;148.02;;;4.70;99.90;;;;;;4884806;29;20048;-88
2022/01/28 08:05:01;;;;;;;285.40;149.77;;;4.70;99.90;;;;;;4898131;29;20072;-89
2022/01/28 08:07:27;;;;;;;281.95;147.77;;;4.70;99.90;;;;;;4894353;29;20052;-87
2022/01/28 08:09:52;;;;;;;283.17;148.02;;;4.70;99.90;;;;;;4897829;29;20055;-91
2022/01/28 08:12:18;;;;;;;284.80;148.77;;;4.70;99.90;;;;;;4884096;29;20048;-88
2022/01/28 08:14:44;;;;;;;283.75;148.52;;;4.70;99.90;;;;;;4894060;29;20048;-91
2022/01/28 08:17:11;;;;;;;286.60;149.90;;;4.60;99.90;;;;;;4883393;29;20451;-87
2022/01/28 08:19:37;;;;;;;285.13;148.82;;;4.60;99.90;;;;;;4905295;29;20086;-90
2022/01/28 08:22:04;;;;;;;283.63;148.63;;;4.60;99.90;;;;;;4903338;29;20489;-87
2022/01/28 08:24:30;;;;;;;286.65;149.65;;;4.70;99.90;;;;;;4892438;29;20352;-93
2022/01/28 08:26:56;;;;;;;281.40;147.85;;;4.70;99.90;;;;;;4889024;29;20066;-91
2022/01/28 08:29:22;;;;;;;279.35;146.70;;;4.70;99.90;;;;;;4898519;29;20125;-92
2022/01/28 08:31:48;;;;;;;283.88;148.82;;;4.80;99.90;;;;;;4890577;29;20081;-90
2022/01/28 08:34:13;;;;;;;281.83;147.40;;;4.80;99.90;;;;;;4892717;29;20431;-91
2022/01/28 08:36:39;;;;;;;281.95;147.23;;;4.90;99.90;;;;;;4899291;29;20044;-87
2022/01/28 08:39:08;;;;;;;284.13;148.35;;;4.90;99.90;;;;;;4889619;29;20052;-89
2022/01/28 08:41:36;;;;;;;284.90;148.93;;;4.90;99.90;;;;;;4886448;29;20057;-89
2022/01/28 08:44:03;;;;;;;285.40;149.38;;;4.90;99.90;;;;;;4882990;29;20493;-88
2022/01/28 08:46:28;;;;;;;283.58;148.32;;;5.00;99.90;;;;;;4886637;29;20488;-91
2022/01/28 08:48:54;;;;;;;284.25;148.23;;;4.90;99.90;;;;;;4885881;29;20057;-89
2022/01/28 08:51:20;;;;;;;286.38;149.73;;;4.90;99.90;;;;;;4888345;29;20053;-88
2022/01/28 08:53:45;;;;;;;284.23;148.52;;;4.90;99.90;;;;;;4885716;29;20123;-86
2022/01/28 08:56:11;;;;;;;285.75;148.73;;;5.00;99.90;;;;;;4883945;29;20036;-92
2022/01/28 08:58:37;;;;;;;287.35;150.02;;;5.10;99.90;;;;;;4883171;29;20044;-91
2022/01/28 09:01:03;;;;;;;286.20;149.60;;;5.20;99.90;;;;;;4886315;29;20048;-89
2022/01/28 09:03:28;;;;;;;287.23;149.90;;;5.20;99.90;;;;;;4884268;29;20132;-89
2022/01/28 09:05:54;;;;;;;286.65;149.50;;;5.20;99.90;;;;;;4886334;29;20053;-88
2022/01/28 09:08:20;;;;;;;286.70;149.27;;;5.20;99.90;;;;;;4880115;29;20069;-91
2022/01/28 09:10:56;;;;;;;285.30;149.00;;;5.20;99.90;;;;;;4882085;29;20055;-87
2022/01/28 09:13:37;;;;;;;286.48;149.90;;;5.20;99.90;;;;;;4889053;29;20040;-89
2022/01/28 09:16:04;;;;;;;280.33;146.18;;;5.30;99.90;;;;;;4887106;29;20132;-84
2022/01/28 09:18:29;;;;;;;278.25;145.80;;;5.30;99.90;;;;;;4879304;29;20057;-89
2022/01/28 09:20:56;;;;;;;287.38;149.75;;;5.30;99.90;;;;;;4887443;29;20141;-91
2022/01/28 09:23:22;;;;;;;289.33;151.10;;;5.40;99.90;;;;;;4886799;29;20048;-92
2022/01/28 09:25:48;;;;;;;289.05;150.73;;;5.50;99.90;;;;;;4882877;29;20053;-88
2022/01/28 09:28:14;;;;;;;279.63;146.35;;;5.60;99.90;;;;;;4906420;29;20047;-87
2022/01/28 09:30:40;;;;;;;291.10;151.68;;;5.70;99.90;;;;;;4887187;29;20054;-87
2022/01/28 09:33:06;;;;;;;290.83;150.45;;;5.70;99.90;;;;;;4889082;29;20116;-86
2022/01/28 09:35:32;;;;;;;286.48;148.18;;;5.90;99.90;;;;;;4888489;29;20059;-85
2022/01/28 09:37:58;;;;;;;289.38;149.60;;;6.10;99.90;;;;;;4885395;29;20056;-91
2022/01/28 09:40:24;;;;;;;297.15;153.52;;;6.20;99.90;;;;;;4884287;29;20052;-86
2022/01/28 09:42:52;;;;;;;292.35;150.73;;;6.30;99.90;;;;;;4887233;29;20047;-85
2022/01/28 09:45:21;;;;;;;294.63;151.90;;;6.30;99.90;;;;;;4885787;29;20148;-90
2022/01/28 09:47:47;;;;;;;295.88;151.93;;;6.50;99.90;;;;;;4892866;29;20051;-89
2022/01/28 09:50:13;;;;;;;296.65;152.32;;;6.80;99.90;;;;;;4886511;29;20400;-81
2022/01/28 09:52:39;;;;;;;297.30;152.60;;;6.80;99.90;;;;;;4893091;29;20052;-91
2022/01/28 09:55:05;;;;;;;295.98;151.80;;;6.90;99.90;;;;;;4891230;29;20039;-87
2022/01/28 09:57:32;;;;;;;297.83;152.63;;;6.80;99.90;;;;;;4887297;29;20525;-87
2022/01/28 09:59:58;;;;;;;300.98;154.60;;;6.90;99.90;;;;;;4886020;29;20153;-89
2022/01/28 10:02:46;;;;;;;296.85;152.52;;;7.00;99.90;;;;;;4887967;29;20095;-87
2022/01/28 10:05:28;;;;;;;298.15;153.40;;;7.00;99.90;;;;;;4887892;29;20468;-87
2022/01/28 10:08:19;;;;;;;296.83;152.55;;;6.90;99.90;;;;;;4883203;29;20080;-86
2022/01/28 10:10:54;;;;;;;296.85;153.35;;;6.80;99.90;;;;;;4888646;29;20071;-83
2022/01/28 10:14:13;;;;;;;293.40;150.65;;;6.80;99.90;;;;;;4885315;29;20457;-89
2022/01/28 10:16:21;;;;;;;299.90;153.65;;;6.70;99.90;;;;;;4877443;29;20655;-90
2022/01/28 10:18:52;;;;;;;297.48;152.13;;;6.80;99.90;;;;;;4893620;29;20040;-89
2022/01/28 10:21:29;;;;;;;299.98;154.18;;;6.80;99.90;;;;;;4886962;29;20060;-86
2022/01/28 10:24:15;;;;;;;302.88;154.95;;;6.90;99.90;;;;;;4900530;29;20163;-89
2022/01/28 10:26:45;;;;;;;304.13;155.70;;;7.10;99.90;;;;;;4892621;29;20119;-87
2022/01/28 10:29:17;;;;;;;301.35;153.93;;;7.10;99.90;;;;;;4884613;29;20044;-88
2022/01/28 10:31:58;;;;;;;302.58;154.68;;;7.10;99.90;;;;;;4894099;29;20048;-86
2022/01/28 10:34:35;;;;;;;303.10;154.90;;;7.10;99.90;;;;;;4879608;29;20091;-85
2022/01/28 10:37:08;;;;;;;300.70;153.63;;;7.00;99.90;;;;;;4890952;29;20040;-88
2022/01/28 10:40:01;;;;;;;303.48;155.07;;;6.90;99.90;;;;;;4885032;29;20056;-91
2022/01/28 10:42:39;;;;;;;303.15;155.23;;;6.90;99.90;;;;;;4897703;29;20051;-87
2022/01/28 10:45:11;;;;;;;299.38;154.02;;;6.90;99.90;;;;;;4899357;29;20032;-87
2022/01/28 10:47:41;;;;;;;;;;;6.90;99.90;;;;;;4890954;29;20048;-85
2022/01/28 10:50:19;;;;;;;292.00;151.02;;;7.00;99.90;;;;;;4879105;29;19923;-86
2022/01/28 10:52:46;;;;;;;297.98;153.65;;;7.00;99.90;;;;;;4879220;29;20060;-84
2022/01/28 10:55:18;;;;;;;299.52;153.85;;;7.00;99.90;;;;;;4888972;29;20107;-88
2022/01/28 10:57:58;;;;;;;295.35;151.68;;;7.10;99.90;;;;;;4896082;29;20469;-87
2022/01/28 11:00:33;;;;;;;297.60;153.07;;;7.10;99.90;;;;;;4878717;29;20122;-85
2022/01/28 11:03:00;;;;;;;298.90;153.80;;;7.10;99.90;;;;;;4877963;29;20048;-86
2022/01/28 11:05:28;;;;;;;299.92;153.77;;;7.10;99.90;;;;;;4879298;29;20099;-84
2022/01/28 11:07:54;;;;;;;301.80;154.98;;;7.30;99.90;;;;;;4877396;29;20099;-83
2022/01/28 11:10:19;;;;;;;303.85;155.05;;;7.40;99.90;;;;;;4878639;29;20084;-82
2022/01/28 11:12:45;;;;;;;301.77;153.95;;;7.60;99.90;;;;;;4879134;29;20044;-84
2022/01/28 11:15:12;;;;;;;299.90;153.35;;;7.70;99.90;;;;;;4903719;29;20043;-86
2022/01/28 11:17:37;;;;;;;302.73;155.07;;;7.80;99.90;;;;;;4897237;29;20044;-85
2022/01/28 11:20:06;;;;;;;299.02;153.15;;;7.70;99.90;;;;;;4883306;29;20049;-85
2022/01/28 11:22:43;;;;;;;306.05;156.82;;;7.80;99.90;;;;;;4881435;29;20436;-90
2022/01/28 11:25:46;;;;;;;306.33;156.07;;;7.80;99.90;;;;;;4885804;29;20103;-85
2022/01/28 11:28:13;;;;;;;305.13;155.15;;;7.70;99.90;;;;;;4880096;29;20082;-84
2022/01/28 11:31:05;;;;;;;304.00;155.60;;;7.60;99.90;;;;;;4888967;29;20040;-87
2022/01/28 11:33:48;;;;;;;301.13;153.95;;;7.50;99.90;;;;;;4880416;29;20107;-84
2022/01/28 11:36:34;;;;;;;305.60;156.30;;;7.40;99.90;;;;;;4887144;29;20053;-82
2022/01/28 11:39:08;;;;;;;303.58;154.88;;;7.40;99.90;;;;;;4880576;29;20048;-84
2022/01/28 11:41:35;;;;;;;302.52;154.77;;;7.40;99.90;;;;;;4885084;29;20056;-85
2022/01/28 11:44:01;;;;;;;300.65;153.88;;;7.40;99.90;;;;;;4878106;29;20053;-86
2022/01/28 11:46:37;;;;;;;337.70;163.00;;;7.50;99.90;;;;;;4878369;29;20112;-86
2022/01/28 11:49:17;;;;;;;406.88;182.20;;;8.30;99.90;;;;;;4889482;29;20557;-83
2022/01/28 11:51:43;;;;;;;471.42;197.32;;;9.30;99.90;;;;;;4881802;29;20070;-87
2022/01/28 11:54:19;;;;;;;433.38;190.05;;;10.70;99.90;;;;;;4893808;29;20421;-88
2022/01/28 11:56:57;;;;;;;360.52;164.45;;;11.60;99.90;;;;;;4885239;29;20093;-83
2022/01/28 11:59:27;;;;;;;356.33;164.60;;;11.90;99.90;;;;;;4882595;29;20120;-84
2022/01/28 12:01:52;;;;;;;353.02;162.90;;;11.70;99.90;;;;;;4880743;29;20135;-85
2022/01/28 12:04:24;;;;;;;353.45;163.23;;;11.20;99.90;;;;;;4903401;29;20210;-86
2022/01/28 12:07:22;;;;;;;352.15;163.30;;;10.80;99.90;;;;;;4881816;29;20052;-86
2022/01/28 12:09:51;;;;;;;349.35;162.93;;;10.50;99.90;;;;;;4889405;29;20107;-87
2022/01/28 12:12:56;;;;;;;345.60;161.30;;;10.10;99.90;;;;;;4878407;29;20044;-87
2022/01/28 12:15:23;;;;;;;338.08;159.13;;;9.70;99.90;;;;;;4884971;29;20044;-84
2022/01/28 12:17:50;;;;;;;341.90;161.50;;;9.30;99.90;;;;;;4880588;29;20449;-88
2022/01/28 12:20:21;;;;;;;339.50;159.65;;;9.00;99.90;;;;;;4891611;29;20468;-86
2022/01/28 12:23:08;;;;;;;336.90;159.55;;;8.70;99.90;;;;;;4896469;29;20052;-88
2022/01/28 12:25:39;;;;;;;302.88;152.38;;;8.40;99.90;;;;;;4896643;29;20084;-87
2022/01/28 12:28:18;;;;;;;297.70;149.55;;;8.20;99.90;;;;;;4883569;29;20445;-90
2022/01/28 12:31:07;;;;;;;296.77;149.40;;;8.00;99.90;;;;;;4883287;29;20048;-91
2022/01/28 12:33:36;;;;;;;292.55;147.95;;;7.90;99.90;;;;;;4883424;29;20032;-88
2022/01/28 12:36:16;;;;;;;301.23;152.88;;;7.80;99.90;;;;;;4895038;29;20128;-88
2022/01/28 12:38:55;;;;;;;303.05;152.50;;;7.70;99.90;;;;;;4894737;29;20040;-88
2022/01/28 12:41:23;;;;;;;299.13;150.98;;;7.70;99.90;;;;;;4885722;29;20081;-87
2022/01/28 12:43:48;;;;;;;301.40;152.27;;;7.60;99.90;;;;;;4887072;29;20068;-87
2022/01/28 12:46:15;;;;;;;301.45;152.30;;;7.60;99.90;;;;;;4881662;29;20143;-90
2022/01/28 12:48:52;;;;;;;296.70;149.82;;;7.60;99.90;;;;;;4882755;29;20053;-92
2022/01/28 12:51:21;;;;;;;299.50;151.23;;;7.60;99.90;;;;;;4901092;29;20104;-91
2022/01/28 12:53:53;;;;;;;297.60;150.10;;;7.60;99.90;;;;;;4885643;29;20040;-91
2022/01/28 12:56:41;;;;;;;298.90;151.02;;;7.60;99.90;;;;;;4903024;29;20524;-89
2022/01/28 12:59:08;;;;;;;292.77;148.70;;;7.60;99.90;;;;;;4888895;29;20044;-91
2022/01/28 13:01:35;;;;;;;191.70;123.93;;;7.60;99.90;;;;;;4891126;29;20072;-96
2022/01/28 13:04:13;;;;;;;177.25;118.18;;;7.60;99.90;;;;;;4882304;29;20057;-91
2022/01/28 13:06:53;;;;;;;198.43;126.22;;;7.60;99.90;;;;;;4885950;29;20044;-90
2022/01/28 13:09:23;;;;;;;168.52;117.70;;;7.60;99.90;;;;;;4895290;29;20052;-89
2022/01/28 13:11:54;;;;;;;155.93;112.93;;;7.50;99.90;;;;;;4890494;29;20045;-88
2022/01/28 13:14:28;;;;;;;134.45;104.55;;;7.50;99.90;;;;;;4889363;29;20049;-88
2022/01/28 13:16:54;;;;;;;145.57;108.57;;;7.50;99.90;;;;;;4880916;29;20045;-82
2022/01/28 13:19:19;;;;;;;;;;;7.50;99.90;;;;;;4888791;29;20048;-85
2022/01/28 13:21:46;;;;;;;;;;;7.50;99.90;;;;;;4883089;29;20013;-92
2022/01/28 13:24:22;;;;;;;;;;;7.60;99.90;;;;;;4886929;29;19958;-90
2022/01/28 13:26:55;;;;;;;;;;;7.60;99.90;;;;;;4882815;29;20416;-92
2022/01/28 13:29:31;;;;;;;;;;;7.60;99.90;;;;;;4884548;29;20052;-88
2022/01/28 13:31:57;;;;;;;;;;;7.50;99.90;;;;;;4881058;29;19948;-87
2022/01/28 13:34:24;;;;;;;;;;;7.50;99.90;;;;;;4886910;29;19944;-86
2022/01/28 13:36:51;;;;;;;;;;;7.50;99.90;;;;;;4886825;29;19942;-87
2022/01/28 13:39:20;;;;;;;;;;;7.50;99.90;;;;;;4890143;29;19959;-86
2022/01/28 13:41:50;;;;;;;;;;;7.60;99.90;;;;;;4886347;29;19953;-86
2022/01/28 13:44:26;;;;;;;;;;;7.60;99.90;;;;;;4884411;29;19943;-86
2022/01/28 13:47:01;;;;;;;;;;;7.60;99.90;;;;;;4885268;29;19974;-89
2022/01/28 13:49:31;;;;;;;;;;;7.60;99.90;;;;;;4886856;29;19974;-87
2022/01/28 13:52:07;;;;;;;;;;;7.50;99.90;;;;;;4886047;29;20286;-87
2022/01/28 13:54:33;;;;;;;;;;;7.50;99.90;;;;;;4914778;29;19948;-87
2022/01/28 13:57:00;;;;;;;;;;;7.40;99.90;;;;;;4899117;29;20395;-86
2022/01/28 13:59:29;;;;;;;;;;;7.40;99.90;;;;;;4886567;29;19945;-87